createdAt,value
2023-01-21T00:00:05.673Z,98.46
2023-01-21T00:01:05.661Z,98.46
2023-01-21T00:02:05.678Z,98.56
2023-01-21T00:03:05.698Z,98.46
2023-01-21T00:04:05.637Z,98.46
2023-01-21T00:05:05.641Z,98.46
2023-01-21T00:06:05.634Z,98.46
2023-01-21T00:07:05.595Z,98.46
2023-01-21T00:08:05.604Z,98.46
2023-01-21T00:09:05.557Z,98.46
2023-01-21T00:10:05.588Z,98.46
2023-01-21T00:11:05.548Z,98.46
2023-01-21T00:12:05.539Z,98.46
2023-01-21T00:13:05.562Z,98.46
2023-01-21T00:14:05.526Z,98.46
2023-01-21T00:15:05.543Z,98.46
2023-01-21T00:16:05.562Z,98.46
2023-01-21T00:17:05.504Z,98.46
2023-01-21T00:18:05.486Z,98.46
2023-01-21T00:19:05.506Z,98.46
2023-01-21T00:20:05.483Z,98.46
2023-01-21T00:21:05.442Z,98.46
2023-01-21T00:22:05.451Z,98.46
2023-01-21T00:23:05.430Z,98.50
2023-01-21T00:24:05.412Z,98.50
2023-01-21T00:25:05.410Z,98.50
2023-01-21T00:26:05.493Z,98.50
2023-01-21T00:27:05.380Z,98.50
2023-01-21T00:28:05.386Z,98.50
2023-01-21T00:29:05.359Z,98.61
2023-01-21T00:30:05.362Z,98.61
2023-01-21T00:31:05.474Z,98.61
2023-01-21T00:32:05.372Z,98.56
2023-01-21T00:33:05.324Z,98.67
2023-01-21T00:34:05.309Z,98.67
2023-01-21T00:35:05.302Z,98.56
2023-01-21T00:36:05.295Z,98.71
2023-01-21T00:37:05.279Z,98.71
2023-01-21T00:38:05.297Z,98.71
2023-01-21T00:39:05.267Z,98.61
2023-01-21T00:40:05.247Z,98.71
2023-01-21T00:41:05.230Z,98.61
2023-01-21T00:42:05.248Z,98.61
2023-01-21T00:43:05.226Z,98.61
2023-01-21T00:44:05.192Z,98.61
2023-01-21T00:45:05.183Z,98.61
2023-01-21T00:46:05.262Z,98.71
2023-01-21T00:47:05.165Z,98.71
2023-01-21T00:48:05.184Z,98.71
2023-01-21T00:49:05.223Z,98.71
2023-01-21T00:50:05.147Z,98.71
2023-01-21T00:51:05.141Z,98.71
2023-01-21T00:52:05.118Z,98.71
2023-01-21T00:53:05.121Z,98.71
2023-01-21T00:54:05.083Z,98.71
2023-01-21T00:55:05.094Z,98.61
2023-01-21T00:56:05.068Z,98.61
2023-01-21T00:57:05.094Z,98.61
2023-01-21T00:58:06.453Z,98.61
2023-01-21T00:59:05.035Z,98.61
2023-01-21T01:00:05.032Z,98.61
2023-01-21T01:01:05.012Z,98.71
2023-01-21T01:02:05.004Z,98.71
2023-01-21T01:03:05.045Z,98.71
2023-01-21T01:04:04.999Z,98.71
2023-01-21T01:05:04.965Z,98.71
2023-01-21T01:06:04.954Z,98.71
2023-01-21T01:07:04.952Z,98.71
2023-01-21T01:08:04.938Z,98.71
2023-01-21T01:09:04.959Z,98.61
2023-01-21T01:10:04.925Z,98.65
2023-01-21T01:11:04.914Z,98.65
2023-01-21T01:12:04.895Z,98.75
2023-01-21T01:13:04.909Z,98.75
2023-01-21T01:14:04.883Z,98.75
2023-01-21T01:15:04.878Z,98.75
2023-01-21T01:16:04.889Z,98.75
2023-01-21T01:17:05.386Z,98.75
2023-01-21T01:18:04.849Z,98.75
2023-01-21T01:19:05.484Z,98.75
2023-01-21T01:20:04.820Z,98.75
2023-01-21T01:21:04.807Z,98.75
2023-01-21T01:22:04.798Z,98.75
2023-01-21T01:23:04.775Z,98.75
2023-01-21T01:24:05.430Z,98.75
2023-01-21T01:25:04.757Z,98.86
2023-01-21T01:26:04.781Z,98.86
2023-01-21T01:27:04.729Z,98.86
2023-01-21T01:28:04.729Z,98.86
2023-01-21T01:29:04.729Z,98.86
2023-01-21T01:30:04.746Z,98.86
2023-01-21T01:31:04.755Z,98.86
2023-01-21T01:32:04.678Z,98.97
2023-01-21T01:33:04.658Z,98.97
2023-01-21T01:34:04.692Z,98.97
2023-01-21T01:35:04.641Z,98.97
2023-01-21T01:36:04.645Z,98.97
2023-01-21T01:37:04.631Z,98.97
2023-01-21T01:38:04.634Z,98.97
2023-01-21T01:39:04.607Z,98.97
2023-01-21T01:40:06.392Z,98.97
2023-01-21T01:41:04.586Z,98.97
2023-01-21T01:42:04.573Z,98.97
2023-01-21T01:43:04.557Z,98.97
2023-01-21T01:44:04.594Z,98.97
2023-01-21T01:45:04.548Z,98.97
2023-01-21T01:46:04.567Z,98.97
2023-01-21T01:47:04.551Z,98.97
2023-01-21T01:48:04.510Z,98.97
2023-01-21T01:49:04.494Z,98.97
2023-01-21T01:50:04.490Z,98.97
2023-01-21T01:51:04.571Z,98.97
2023-01-21T01:52:04.464Z,98.97
2023-01-21T01:53:04.447Z,99.07
2023-01-21T01:54:04.435Z,99.07
2023-01-21T01:55:04.430Z,99.07
2023-01-21T01:56:04.413Z,99.07
2023-01-21T01:57:04.613Z,99.07
2023-01-21T01:58:04.404Z,99.07
2023-01-21T01:59:04.393Z,99.07
2023-01-21T02:00:04.412Z,99.07
2023-01-21T02:01:04.390Z,99.07
2023-01-21T02:02:04.365Z,99.07
2023-01-21T02:03:04.448Z,99.07
2023-01-21T02:04:04.335Z,99.07
2023-01-21T02:05:04.320Z,99.07
2023-01-21T02:06:04.308Z,99.07
2023-01-21T02:07:04.282Z,99.18
2023-01-21T02:08:04.298Z,99.18
2023-01-21T02:09:04.333Z,99.18
2023-01-21T02:10:04.277Z,99.18
2023-01-21T02:11:04.243Z,99.28
2023-01-21T02:12:04.246Z,99.28
2023-01-21T02:13:04.263Z,99.28
2023-01-21T02:14:04.224Z,99.38
2023-01-21T02:15:04.242Z,99.28
2023-01-21T02:16:04.252Z,99.28
2023-01-21T02:17:04.197Z,99.28
2023-01-21T02:18:04.188Z,99.28
2023-01-21T02:19:04.168Z,99.28
2023-01-21T02:20:04.197Z,99.28
2023-01-21T02:21:04.144Z,99.28
2023-01-21T02:22:04.137Z,99.28
2023-01-21T02:23:04.124Z,99.28
2023-01-21T02:24:04.154Z,99.28
2023-01-21T02:25:04.136Z,99.28
2023-01-21T02:26:04.105Z,99.28
2023-01-21T02:27:04.083Z,99.28
2023-01-21T02:28:04.075Z,99.28
2023-01-21T02:29:04.093Z,99.28
2023-01-21T02:30:04.060Z,99.28
2023-01-21T02:31:04.191Z,99.28
2023-01-21T02:32:04.029Z,99.18
2023-01-21T02:33:04.025Z,99.18
2023-01-21T02:34:04.016Z,99.28
2023-01-21T02:35:04.025Z,99.18
2023-01-21T02:36:04.065Z,99.07
2023-01-21T02:37:04.052Z,99.07
2023-01-21T02:38:04.856Z,99.07
2023-01-21T02:39:03.961Z,99.07
2023-01-21T02:40:03.952Z,99.07
2023-01-21T02:41:03.968Z,99.07
2023-01-21T02:42:03.936Z,99.07
2023-01-21T02:43:03.918Z,99.01
2023-01-21T02:44:03.909Z,99.01
2023-01-21T02:45:03.885Z,99.01
2023-01-21T02:46:03.875Z,99.01
2023-01-21T02:47:14.566Z,99.01
2023-01-21T02:48:03.864Z,99.01
2023-01-21T02:49:03.848Z,98.91
2023-01-21T02:50:03.878Z,98.91
2023-01-21T02:51:03.895Z,99.01
2023-01-21T02:52:03.829Z,99.01
2023-01-21T02:53:03.828Z,99.01
2023-01-21T02:54:03.838Z,99.01
2023-01-21T02:55:03.801Z,99.01
2023-01-21T02:56:03.780Z,99.01
2023-01-21T02:57:03.785Z,99.01
2023-01-21T02:58:03.749Z,99.01
2023-01-21T02:59:03.733Z,99.01
2023-01-21T03:00:04.773Z,99.01
2023-01-21T03:01:03.810Z,99.01
2023-01-21T03:02:03.763Z,99.01
2023-01-21T03:03:03.723Z,99.01
2023-01-21T03:04:03.705Z,99.01
2023-01-21T03:05:03.691Z,99.01
2023-01-21T03:06:03.670Z,98.91
2023-01-21T03:07:03.654Z,98.91
2023-01-21T03:08:03.649Z,98.91
2023-01-21T03:09:03.659Z,99.01
2023-01-21T03:10:03.633Z,99.01
2023-01-21T03:11:03.615Z,99.01
2023-01-21T03:12:03.584Z,98.91
2023-01-21T03:13:03.594Z,98.91
2023-01-21T03:14:03.570Z,98.91
2023-01-21T03:15:03.604Z,98.80
2023-01-21T03:16:03.655Z,98.80
2023-01-21T03:17:03.630Z,98.80
2023-01-21T03:18:03.540Z,98.80
2023-01-21T03:19:03.523Z,98.80
2023-01-21T03:20:03.543Z,98.85
2023-01-21T03:21:03.568Z,98.74
2023-01-21T03:22:03.518Z,98.85
2023-01-21T03:23:03.469Z,98.85
2023-01-21T03:24:03.490Z,98.74
2023-01-21T03:25:03.455Z,98.74
2023-01-21T03:26:03.462Z,98.74
2023-01-21T03:27:03.499Z,98.74
2023-01-21T03:28:03.438Z,98.74
2023-01-21T03:29:03.409Z,98.74
2023-01-21T03:30:03.434Z,98.74
2023-01-21T03:31:03.447Z,98.74
2023-01-21T03:32:03.396Z,98.74
2023-01-21T03:33:03.404Z,98.74
2023-01-21T03:34:03.392Z,98.85
2023-01-21T03:35:03.348Z,98.74
2023-01-21T03:36:03.355Z,98.74
2023-01-21T03:37:03.405Z,98.74
2023-01-21T03:38:03.338Z,98.85
2023-01-21T03:39:03.302Z,98.74
2023-01-21T03:40:03.304Z,98.74
2023-01-21T03:41:03.327Z,98.74
2023-01-21T03:42:03.304Z,98.85
2023-01-21T03:43:03.253Z,98.85
2023-01-21T03:44:03.254Z,98.85
2023-01-21T03:45:03.254Z,98.85
2023-01-21T03:46:03.260Z,98.85
2023-01-21T03:47:03.249Z,98.85
2023-01-21T03:48:03.225Z,98.95
2023-01-21T03:49:03.205Z,98.95
2023-01-21T03:50:03.202Z,98.95
2023-01-21T03:51:03.245Z,98.95
2023-01-21T03:52:03.173Z,98.95
2023-01-21T03:53:03.205Z,99.05
2023-01-21T03:54:03.135Z,98.95
2023-01-21T03:55:03.163Z,99.05
2023-01-21T03:56:03.138Z,99.05
2023-01-21T03:57:03.145Z,99.05
2023-01-21T03:58:03.154Z,99.05
2023-01-21T03:59:03.095Z,99.05
2023-01-21T04:00:03.117Z,99.05
2023-01-21T04:01:03.147Z,99.05
2023-01-21T04:02:03.184Z,99.05
2023-01-21T04:03:03.074Z,99.16
2023-01-21T04:04:03.060Z,99.16
2023-01-21T04:05:04.508Z,99.05
2023-01-21T04:06:03.072Z,99.05
2023-01-21T04:07:03.310Z,99.05
2023-01-21T04:08:02.999Z,99.05
2023-01-21T04:09:03.011Z,99.05
2023-01-21T04:10:03.000Z,99.05
2023-01-21T04:11:02.984Z,99.05
2023-01-21T04:12:02.949Z,99.05
2023-01-21T04:13:02.953Z,99.05
2023-01-21T04:14:02.934Z,99.16
2023-01-21T04:15:05.341Z,99.05
2023-01-21T04:16:03.204Z,99.05
2023-01-21T04:17:02.903Z,99.05
2023-01-21T04:18:02.892Z,99.05
2023-01-21T04:19:02.893Z,98.95
2023-01-21T04:20:02.871Z,98.95
2023-01-21T04:21:02.861Z,98.95
2023-01-21T04:22:03.808Z,98.95
2023-01-21T04:23:02.853Z,99.00
2023-01-21T04:24:02.849Z,99.00
2023-01-21T04:25:02.875Z,99.00
2023-01-21T04:26:02.944Z,99.00
2023-01-21T04:27:02.807Z,99.00
2023-01-21T04:28:02.780Z,99.00
2023-01-21T04:29:02.766Z,99.00
2023-01-21T04:30:02.806Z,99.00
2023-01-21T04:31:02.837Z,99.00
2023-01-21T04:32:02.814Z,99.00
2023-01-21T04:33:02.729Z,99.00
2023-01-21T04:34:02.713Z,99.00
2023-01-21T04:35:02.711Z,99.00
2023-01-21T04:36:02.693Z,99.10
2023-01-21T04:37:02.716Z,99.10
2023-01-21T04:38:02.654Z,99.10
2023-01-21T04:39:02.722Z,99.10
2023-01-21T04:40:02.647Z,99.10
2023-01-21T04:41:02.631Z,99.00
2023-01-21T04:42:02.633Z,99.10
2023-01-21T04:43:02.610Z,99.10
2023-01-21T04:44:02.608Z,99.10
2023-01-21T04:45:02.715Z,99.10
2023-01-21T04:46:02.619Z,99.10
2023-01-21T04:47:02.578Z,99.10
2023-01-21T04:48:02.560Z,99.10
2023-01-21T04:49:02.558Z,99.10
2023-01-21T04:50:02.576Z,99.10
2023-01-21T04:51:02.562Z,99.21
2023-01-21T04:52:02.515Z,99.10
2023-01-21T04:53:03.957Z,99.10
2023-01-21T04:54:02.516Z,99.10
2023-01-21T04:55:02.488Z,99.10
2023-01-21T04:56:02.502Z,99.15
2023-01-21T04:57:02.475Z,99.15
2023-01-21T04:58:02.449Z,99.15
2023-01-21T04:59:02.443Z,99.15
2023-01-21T05:00:02.427Z,99.15
2023-01-21T05:01:02.451Z,99.15
2023-01-21T05:02:02.483Z,99.25
2023-01-21T05:03:02.416Z,99.25
2023-01-21T05:04:02.376Z,99.25
2023-01-21T05:05:02.411Z,99.25
2023-01-21T05:06:02.403Z,99.25
2023-01-21T05:07:02.345Z,99.25
2023-01-21T05:08:02.344Z,99.25
2023-01-21T05:09:02.361Z,99.36
2023-01-21T05:10:02.339Z,99.36
2023-01-21T05:11:02.309Z,99.36
2023-01-21T05:12:02.323Z,99.36
2023-01-21T05:13:02.342Z,99.36
2023-01-21T05:14:03.243Z,99.46
2023-01-21T05:15:02.271Z,99.36
2023-01-21T05:16:02.788Z,99.46
2023-01-21T05:17:02.336Z,99.46
2023-01-21T05:18:02.239Z,99.46
2023-01-21T05:19:02.264Z,99.46
2023-01-21T05:20:02.273Z,99.46
2023-01-21T05:21:02.225Z,99.46
2023-01-21T05:22:02.196Z,99.46
2023-01-21T05:23:02.198Z,99.46
2023-01-21T05:24:02.370Z,99.46
2023-01-21T05:25:02.162Z,99.46
2023-01-21T05:26:02.156Z,99.57
2023-01-21T05:27:02.151Z,99.57
2023-01-21T05:28:02.137Z,99.57
2023-01-21T05:29:02.428Z,99.46
2023-01-21T05:30:02.123Z,99.46
2023-01-21T05:31:02.244Z,99.46
2023-01-21T05:32:02.226Z,99.46
2023-01-21T05:33:02.092Z,99.46
2023-01-21T05:34:02.081Z,99.57
2023-01-21T05:35:02.087Z,99.46
2023-01-21T05:36:02.047Z,99.46
2023-01-21T05:37:02.060Z,99.46
2023-01-21T05:38:02.021Z,99.51
2023-01-21T05:39:02.080Z,99.61
2023-01-21T05:40:02.062Z,99.61
2023-01-21T05:41:02.010Z,99.57
2023-01-21T05:42:01.991Z,99.57
2023-01-21T05:43:01.971Z,99.57
2023-01-21T05:44:01.961Z,99.61
2023-01-21T05:45:01.966Z,99.57
2023-01-21T05:46:01.968Z,99.67
2023-01-21T05:47:01.924Z,99.67
2023-01-21T05:48:12.241Z,99.67
2023-01-21T05:49:01.909Z,99.67
2023-01-21T05:50:01.893Z,99.67
2023-01-21T05:51:01.913Z,99.67
2023-01-21T05:52:01.882Z,99.67
2023-01-21T05:53:01.941Z,99.67
2023-01-21T05:54:01.840Z,99.67
2023-01-21T05:55:03.006Z,99.67
2023-01-21T05:56:01.839Z,99.67
2023-01-21T05:57:01.825Z,99.78
2023-01-21T05:58:01.845Z,99.67
2023-01-21T05:59:01.850Z,99.67
2023-01-21T06:00:01.792Z,99.78
2023-01-21T06:01:01.780Z,99.67
2023-01-21T06:02:01.819Z,99.78
2023-01-21T06:03:01.753Z,99.67
2023-01-21T06:04:01.742Z,99.67
2023-01-21T06:05:01.879Z,99.67
2023-01-21T06:06:01.739Z,99.67
2023-01-21T06:07:03.167Z,99.72
2023-01-21T06:08:01.706Z,99.67
2023-01-21T06:09:01.683Z,99.78
2023-01-21T06:10:01.719Z,99.78
2023-01-21T06:11:01.688Z,99.78
2023-01-21T06:12:01.668Z,99.78
2023-01-21T06:13:01.652Z,99.78
2023-01-21T06:14:01.643Z,99.78
2023-01-21T06:15:01.624Z,99.88
2023-01-21T06:16:01.721Z,99.88
2023-01-21T06:17:01.625Z,99.78
2023-01-21T06:18:01.599Z,99.88
2023-01-21T06:19:01.614Z,99.78
2023-01-21T06:20:01.656Z,99.78
2023-01-21T06:21:01.565Z,99.78
2023-01-21T06:22:01.553Z,99.78
2023-01-21T06:23:01.598Z,99.78
2023-01-21T06:24:01.561Z,99.78
2023-01-21T06:25:01.575Z,99.78
2023-01-21T06:26:01.569Z,99.78
2023-01-21T06:27:01.497Z,99.78
2023-01-21T06:28:01.505Z,99.78
2023-01-21T06:29:01.580Z,99.78
2023-01-21T06:30:01.489Z,99.78
2023-01-21T06:31:01.590Z,99.88
2023-01-21T06:32:01.494Z,99.88
2023-01-21T06:33:01.437Z,99.88
2023-01-21T06:34:01.428Z,99.99
2023-01-21T06:35:01.432Z,99.99
2023-01-21T06:36:01.395Z,99.99
2023-01-21T06:37:01.402Z,99.99
2023-01-21T06:38:01.414Z,99.99
2023-01-21T06:39:01.380Z,99.99
2023-01-21T06:40:01.365Z,99.99
2023-01-21T06:41:01.358Z,99.99
2023-01-21T06:42:01.377Z,99.99
2023-01-21T06:43:01.357Z,99.99
2023-01-21T06:44:01.340Z,99.99
2023-01-21T06:45:01.330Z,99.99
2023-01-21T06:46:01.356Z,99.99
2023-01-21T06:47:01.981Z,99.99
2023-01-21T06:48:01.286Z,99.99
2023-01-21T06:49:01.318Z,99.99
2023-01-21T06:50:01.259Z,99.93
2023-01-21T06:51:01.289Z,99.93
2023-01-21T06:52:01.239Z,99.93
2023-01-21T06:53:01.224Z,99.93
2023-01-21T06:54:01.210Z,99.93
2023-01-21T06:55:01.241Z,99.93
2023-01-21T06:56:01.190Z,99.93
2023-01-21T06:57:01.179Z,99.93
2023-01-21T06:58:01.163Z,99.93
2023-01-21T06:59:01.155Z,99.93
2023-01-21T07:00:01.177Z,99.93
2023-01-21T07:01:01.173Z,99.93
2023-01-21T07:02:01.294Z,99.93
2023-01-21T07:03:01.139Z,99.93
2023-01-21T07:04:01.145Z,99.99
2023-01-21T07:05:01.155Z,99.99
2023-01-21T07:06:01.091Z,99.99
2023-01-21T07:07:01.114Z,99.99
2023-01-21T07:08:01.078Z,99.99
2023-01-21T07:09:01.051Z,99.99
2023-01-21T07:10:01.044Z,99.93
2023-01-21T07:11:01.047Z,99.93
2023-01-21T07:12:01.021Z,99.93
2023-01-21T07:13:01.041Z,99.93
2023-01-21T07:14:00.981Z,99.93
2023-01-21T07:15:00.997Z,99.93
2023-01-21T07:16:01.157Z,99.98
2023-01-21T07:17:00.963Z,99.98
2023-01-21T07:18:00.974Z,99.98
2023-01-21T07:19:00.933Z,99.98
2023-01-21T07:20:01.075Z,99.98
2023-01-21T07:21:00.931Z,99.98
2023-01-21T07:22:00.901Z,99.93
2023-01-21T07:23:00.937Z,99.98
2023-01-21T07:24:00.883Z,99.87
2023-01-21T07:25:01.078Z,99.87
2023-01-21T07:26:01.025Z,99.82
2023-01-21T07:27:00.843Z,99.87
2023-01-21T07:28:00.833Z,99.87
2023-01-21T07:29:01.972Z,99.87
2023-01-21T07:30:00.837Z,99.93
2023-01-21T07:31:00.937Z,99.99
2023-01-21T07:32:00.874Z,99.99
2023-01-21T07:33:00.812Z,99.99
2023-01-21T07:34:00.767Z,99.93
2023-01-21T07:35:00.780Z,99.93
2023-01-21T07:36:00.819Z,99.93
2023-01-21T07:37:00.749Z,99.93
2023-01-21T07:38:00.733Z,99.99
2023-01-21T07:39:00.771Z,99.99
2023-01-21T07:40:00.708Z,99.99
2023-01-21T07:41:00.721Z,99.99
2023-01-21T07:42:00.691Z,99.99
2023-01-21T07:43:00.723Z,99.99
2023-01-21T07:44:00.697Z,99.99
2023-01-21T07:45:00.849Z,99.99
2023-01-21T07:46:00.650Z,99.99
2023-01-21T07:47:00.763Z,99.99
2023-01-21T07:48:00.625Z,99.99
2023-01-21T07:49:00.645Z,99.99
2023-01-21T07:50:00.648Z,99.99
2023-01-21T07:51:00.644Z,99.99
2023-01-21T07:52:00.594Z,99.99
2023-01-21T07:53:00.585Z,99.99
2023-01-21T07:54:00.595Z,99.99
2023-01-21T07:55:00.580Z,99.99
2023-01-21T07:56:00.585Z,99.99
2023-01-21T07:57:00.547Z,99.99
2023-01-21T07:58:00.599Z,99.99
2023-01-21T07:59:00.513Z,99.99
2023-01-21T08:00:00.529Z,99.99
2023-01-21T08:01:00.492Z,99.99
2023-01-21T08:02:00.656Z,99.99
2023-01-21T08:03:00.500Z,99.99
2023-01-21T08:04:00.484Z,99.99
2023-01-21T08:05:00.460Z,99.99
2023-01-21T08:06:00.451Z,99.99
2023-01-21T08:07:00.437Z,99.99
2023-01-21T08:08:00.448Z,99.99
2023-01-21T08:09:01.141Z,99.99
2023-01-21T08:10:00.402Z,99.99
2023-01-21T08:11:00.441Z,99.99
2023-01-21T08:12:00.379Z,99.99
2023-01-21T08:13:00.372Z,99.99
2023-01-21T08:14:00.390Z,99.99
2023-01-21T08:15:00.353Z,99.99
2023-01-21T08:16:00.337Z,99.99
2023-01-21T08:17:00.331Z,99.99
2023-01-21T08:18:00.323Z,99.99
2023-01-21T08:19:00.311Z,99.99
2023-01-21T08:20:00.317Z,99.99
2023-01-21T08:21:00.297Z,99.99
2023-01-21T08:22:00.269Z,99.99
2023-01-21T08:23:00.248Z,99.95
2023-01-21T08:24:00.248Z,99.95
2023-01-21T08:25:00.239Z,99.95
2023-01-21T08:26:00.279Z,99.95
2023-01-21T08:27:00.224Z,99.88
2023-01-21T08:28:00.212Z,99.84
2023-01-21T08:29:00.192Z,99.88
2023-01-21T08:30:00.189Z,99.99
2023-01-21T08:31:00.206Z,99.95
2023-01-21T08:32:00.171Z,99.95
2023-01-21T08:33:00.293Z,99.95
2023-01-21T08:34:00.135Z,99.95
2023-01-21T08:35:00.122Z,99.95
2023-01-21T08:36:00.123Z,99.95
2023-01-21T08:37:00.131Z,99.99
2023-01-21T08:38:00.126Z,99.99
2023-01-21T08:39:00.115Z,99.99
2023-01-21T08:40:00.086Z,99.99
2023-01-21T08:41:00.078Z,99.99
2023-01-21T08:42:00.153Z,99.99
2023-01-21T08:43:00.037Z,99.99
2023-01-21T08:44:00.071Z,99.99
2023-01-21T08:45:00.017Z,99.99
2023-01-21T08:46:00.114Z,99.99
2023-01-21T08:46:59.993Z,99.99
2023-01-21T08:48:00.026Z,99.99
2023-01-21T08:48:59.977Z,99.99
2023-01-21T08:50:00.112Z,99.99
2023-01-21T08:51:00.030Z,99.99
2023-01-21T08:51:59.993Z,99.99
2023-01-21T08:52:59.924Z,99.99
2023-01-21T08:53:59.914Z,99.99
2023-01-21T08:54:59.950Z,99.99
2023-01-21T08:55:59.906Z,99.99
2023-01-21T08:56:59.871Z,99.99
2023-01-21T08:57:59.877Z,99.99
2023-01-21T08:58:59.880Z,99.97
2023-01-21T08:59:59.865Z,99.87
2023-01-21T09:00:59.874Z,99.87
2023-01-21T09:01:59.844Z,99.87
2023-01-21T09:02:59.825Z,99.76
2023-01-21T09:03:59.840Z,99.76
2023-01-21T09:04:59.805Z,99.76
2023-01-21T09:05:59.791Z,99.76
2023-01-21T09:06:59.787Z,99.66
2023-01-21T09:07:59.773Z,99.51
2023-01-21T09:08:59.794Z,99.51
2023-01-21T09:09:59.762Z,99.51
2023-01-21T09:10:59.736Z,99.40
2023-01-21T09:11:59.729Z,99.30
2023-01-21T09:12:59.709Z,99.19
2023-01-21T09:13:59.708Z,99.19
2023-01-21T09:14:59.755Z,99.08
2023-01-21T09:15:59.684Z,99.08
2023-01-21T09:16:59.675Z,98.98
2023-01-21T09:17:59.690Z,98.98
2023-01-21T09:18:59.656Z,98.98
2023-01-21T09:19:59.656Z,98.98
2023-01-21T09:20:59.625Z,98.88
2023-01-21T09:21:59.651Z,98.83
2023-01-21T09:22:59.615Z,98.83
2023-01-21T09:23:59.605Z,98.83
2023-01-21T09:24:59.614Z,98.83
2023-01-21T09:25:59.566Z,98.83
2023-01-21T09:26:59.559Z,98.72
2023-01-21T09:27:59.627Z,98.72
2023-01-21T09:28:59.539Z,98.72
2023-01-21T09:29:59.537Z,98.72
2023-01-21T09:30:59.548Z,98.72
2023-01-21T09:31:59.563Z,98.68
2023-01-21T09:32:59.525Z,98.58
2023-01-21T09:33:59.491Z,98.58
2023-01-21T09:34:59.503Z,98.58
2023-01-21T09:35:59.487Z,98.47
2023-01-21T09:36:59.468Z,98.47
2023-01-21T09:37:59.449Z,98.37
2023-01-21T09:38:59.472Z,98.37
2023-01-21T09:39:59.524Z,98.37
2023-01-21T09:40:59.408Z,98.37
2023-01-21T09:41:59.411Z,98.26
2023-01-21T09:42:59.412Z,98.26
2023-01-21T09:43:59.397Z,98.16
2023-01-21T09:44:59.374Z,98.05
2023-01-21T09:45:59.448Z,98.05
2023-01-21T09:46:59.336Z,98.05
2023-01-21T09:47:59.338Z,97.91
2023-01-21T09:48:59.341Z,97.91
2023-01-21T09:49:59.316Z,97.91
2023-01-21T09:50:59.354Z,97.80
2023-01-21T09:52:00.306Z,97.80
2023-01-21T09:52:59.274Z,97.80
2023-01-21T09:53:59.271Z,97.69
2023-01-21T09:54:59.261Z,97.69
2023-01-21T09:55:59.294Z,97.69
2023-01-21T09:56:59.230Z,97.69
2023-01-21T09:57:59.254Z,97.59
2023-01-21T09:58:59.221Z,97.59
2023-01-21T09:59:59.201Z,97.49
2023-01-21T10:00:59.232Z,97.44
2023-01-21T10:01:59.189Z,97.34
2023-01-21T10:02:59.184Z,97.34
2023-01-21T10:03:59.201Z,97.23
2023-01-21T10:04:59.153Z,97.23
2023-01-21T10:05:59.141Z,97.23
2023-01-21T10:06:59.482Z,97.13
2023-01-21T10:07:59.116Z,97.13
2023-01-21T10:08:59.110Z,97.13
2023-01-21T10:09:59.117Z,97.02
2023-01-21T10:10:59.106Z,96.98
2023-01-21T10:11:59.085Z,97.08
2023-01-21T10:12:59.094Z,97.08
2023-01-21T10:13:59.075Z,97.08
2023-01-21T10:14:59.066Z,97.08
2023-01-21T10:15:59.087Z,97.08
2023-01-21T10:16:59.071Z,96.98
2023-01-21T10:17:59.028Z,96.88
2023-01-21T10:18:59.015Z,96.88
2023-01-21T10:19:59.014Z,96.88
2023-01-21T10:20:58.986Z,96.88
2023-01-21T10:21:58.975Z,96.72
2023-01-21T10:22:58.971Z,96.72
2023-01-21T10:23:58.955Z,96.72
2023-01-21T10:24:58.927Z,96.62
2023-01-21T10:25:58.920Z,96.62
2023-01-21T10:26:58.914Z,96.51
2023-01-21T10:27:58.939Z,96.51
2023-01-21T10:28:58.927Z,96.51
2023-01-21T10:29:58.902Z,96.51
2023-01-21T10:30:58.955Z,96.47
2023-01-21T10:31:58.875Z,96.47
2023-01-21T10:32:58.853Z,96.37
2023-01-21T10:33:58.829Z,96.37
2023-01-21T10:34:58.883Z,96.26
2023-01-21T10:35:58.832Z,96.26
2023-01-21T10:36:58.796Z,96.26
2023-01-21T10:37:58.826Z,96.16
2023-01-21T10:38:58.801Z,96.05
2023-01-21T10:39:58.764Z,95.95
2023-01-21T10:40:58.775Z,95.95
2023-01-21T10:41:58.756Z,95.95
2023-01-21T10:42:58.759Z,95.95
2023-01-21T10:43:58.732Z,95.84
2023-01-21T10:44:58.763Z,95.84
2023-01-21T10:45:59.707Z,95.80
2023-01-21T10:46:58.706Z,95.90
2023-01-21T10:47:58.698Z,95.80
2023-01-21T10:48:58.681Z,95.80
2023-01-21T10:49:58.686Z,95.80
2023-01-21T10:50:58.712Z,95.80
2023-01-21T10:51:58.663Z,95.80
2023-01-21T10:52:58.645Z,95.80
2023-01-21T10:53:58.630Z,95.80
2023-01-21T10:54:58.598Z,95.70
2023-01-21T10:55:58.602Z,95.70
2023-01-21T10:56:58.625Z,95.70
2023-01-21T10:57:59.528Z,95.70
2023-01-21T10:58:58.556Z,95.65
2023-01-21T10:59:58.559Z,95.65
2023-01-21T11:00:58.592Z,95.55
2023-01-21T11:01:58.540Z,95.55
2023-01-21T11:02:58.530Z,95.44
2023-01-21T11:03:58.517Z,95.44
2023-01-21T11:04:58.499Z,95.34
2023-01-21T11:05:58.493Z,95.34
2023-01-21T11:06:58.479Z,95.23
2023-01-21T11:07:58.506Z,95.13
2023-01-21T11:08:58.498Z,95.03
2023-01-21T11:09:58.471Z,95.03
2023-01-21T11:10:58.444Z,95.03
2023-01-21T11:11:58.765Z,95.03
2023-01-21T11:12:59.008Z,94.92
2023-01-21T11:13:58.425Z,94.82
2023-01-21T11:14:58.402Z,94.82
2023-01-21T11:15:58.424Z,94.82
2023-01-21T11:16:58.361Z,94.82
2023-01-21T11:17:58.387Z,94.71
2023-01-21T11:18:58.339Z,94.71
2023-01-21T11:19:58.342Z,94.67
2023-01-21T11:20:58.345Z,94.67
2023-01-21T11:21:58.347Z,94.57
2023-01-21T11:22:58.290Z,94.57
2023-01-21T11:23:58.456Z,94.57
2023-01-21T11:24:58.274Z,94.57
2023-01-21T11:25:58.283Z,94.57
2023-01-21T11:26:58.273Z,94.57
2023-01-21T11:27:58.259Z,94.57
2023-01-21T11:28:58.290Z,94.46
2023-01-21T11:29:58.255Z,94.46
2023-01-21T11:30:58.830Z,94.46
2023-01-21T11:31:58.291Z,94.35
2023-01-21T11:32:58.185Z,94.35
2023-01-21T11:33:58.205Z,94.35
2023-01-21T11:34:58.185Z,94.25
2023-01-21T11:35:58.159Z,94.21
2023-01-21T11:36:58.155Z,94.21
2023-01-21T11:37:58.184Z,94.21
2023-01-21T11:38:58.142Z,94.21
2023-01-21T11:39:58.135Z,94.21
2023-01-21T11:40:58.118Z,94.00
2023-01-21T11:41:58.099Z,93.96
2023-01-21T11:42:58.106Z,93.85
2023-01-21T11:43:58.091Z,93.75
2023-01-21T11:44:58.072Z,93.75
2023-01-21T11:45:58.079Z,93.65
2023-01-21T11:46:58.993Z,93.50
2023-01-21T11:47:58.017Z,93.40
2023-01-21T11:48:58.035Z,93.29
2023-01-21T11:49:58.010Z,93.18
2023-01-21T11:50:57.985Z,92.97
2023-01-21T11:51:58.036Z,92.77
2023-01-21T11:52:59.903Z,92.66
2023-01-21T11:53:57.964Z,92.52
2023-01-21T11:54:57.953Z,92.31
2023-01-21T11:55:57.930Z,92.21
2023-01-21T11:56:57.909Z,92.10
2023-01-21T11:57:57.945Z,92.10
2023-01-21T11:58:57.916Z,92.00
2023-01-21T11:59:57.937Z,91.89
2023-01-21T12:00:58.856Z,91.78
2023-01-21T12:01:57.882Z,91.68
2023-01-21T12:02:57.904Z,91.58
2023-01-21T12:03:57.932Z,91.47
2023-01-21T12:04:57.836Z,91.22
2023-01-21T12:05:57.854Z,91.12
2023-01-21T12:06:57.833Z,91.02
2023-01-21T12:07:57.840Z,91.02
2023-01-21T12:08:57.783Z,90.91
2023-01-21T12:09:57.872Z,90.70
2023-01-21T12:10:57.817Z,90.60
2023-01-21T12:11:57.766Z,90.50
2023-01-21T12:12:57.750Z,90.29
2023-01-21T12:13:57.754Z,90.08
2023-01-21T12:14:57.743Z,89.87
2023-01-21T12:15:57.740Z,89.76
2023-01-21T12:16:58.509Z,89.66
2023-01-21T12:17:57.694Z,89.56
2023-01-21T12:18:57.705Z,89.45
2023-01-21T12:19:57.764Z,89.35
2023-01-21T12:20:57.672Z,89.25
2023-01-21T12:21:58.510Z,89.25
2023-01-21T12:22:57.660Z,89.10
2023-01-21T12:23:57.936Z,89.20
2023-01-21T12:24:57.619Z,89.10
2023-01-21T12:25:57.622Z,89.10
2023-01-21T12:26:57.599Z,88.79
2023-01-21T12:27:57.606Z,88.68
2023-01-21T12:28:57.577Z,88.58
2023-01-21T12:29:57.796Z,88.48
2023-01-21T12:30:57.700Z,88.58
2023-01-21T12:31:57.588Z,88.58
2023-01-21T12:32:57.567Z,88.58
2023-01-21T12:33:57.696Z,88.48
2023-01-21T12:34:58.236Z,88.27
2023-01-21T12:35:59.434Z,88.37
2023-01-21T12:36:57.503Z,88.48
2023-01-21T12:37:57.500Z,88.58
2023-01-21T12:38:57.464Z,88.68
2023-01-21T12:39:57.464Z,88.58
2023-01-21T12:40:57.448Z,88.37
2023-01-21T12:41:57.475Z,88.27
2023-01-21T12:42:57.428Z,88.27
2023-01-21T12:43:58.357Z,88.06
2023-01-21T12:44:57.400Z,87.96
2023-01-21T12:45:57.421Z,87.85
2023-01-21T12:46:57.435Z,87.96
2023-01-21T12:47:57.393Z,87.75
2023-01-21T12:48:58.725Z,87.43
2023-01-21T12:49:57.337Z,87.43
2023-01-21T12:50:57.363Z,87.43
2023-01-21T12:51:57.362Z,87.43